Tiempo atmosférico en la estación meteorológica de Aranda De Duero, Burgos (790 m.)



Fecha
DESCASC
Temp. máxima en grados centígrados (hora)
DESCASC
Temp. mínima en grados centígrados (hora)
DESCASC
Temp. media en grados centígrados
DESCASC
Racha de viento máxima en m/sg (hora)
DESCASC
Velocidad máxima media en intervalos de 10 minutos(hora)
DESCASC
Precipitaciones diarias en mm
DESCASC
Precipitaciones de 00:00 a 06:00 en mm
DESCASC
Precipitaciones de 06:00 a 12:00 en mm
DESCASC
Precipitaciones de 12:00 a 18:00 en mm
DESCASC
Precipitaciones de 18:00 a 24:00 en mm
DESCASC
18-04-2019 13 (03:40) 8.1 (13:00) 10.6 9.44 (03:50) 4.17 (03:50) 9.4 2 3.4 2.4 1.6
17-04-2019 22.1 (15:40) 8.8 (05:40) 15.5 13.89 (20:30) 6.11 (20:30) 2.6 0 0 0 2.6
16-04-2019 20.3 (17:50) 1.3 (00:00) 10.8 9.44 (15:40) 3.89 (15:40) 0 0 0 0 0
15-04-2019 23.8 (16:00) 7.3 (00:00) 15.5 16.94 (15:30) 8.61 (15:30) 0 0 0 0 0
14-04-2019 21.2 (17:00) 5.1 (00:00) 13.2 7.22 (11:30) 3.89 (12:40) 0 0 0 0 0
13-04-2019 20.5 (16:40) -4.4 (-00:0) 8 18.06 (15:40) 2.78 (18:20) 0 0 0 0 0
12-04-2019 15.3 (16:50) -2.2 (-00:0) 6.6 8.61 (16:00) 3.89 (16:10) 0 0 0 0 0
11-04-2019 12.2 (17:50) -0.6 (-00:0) 5.8 8.33 (14:40) 4.44 (14:40) 0 0 0 0 0
10-04-2019 12.1 (16:40) 4.7 (00:00) 8.4 9.72 (01:10) 4.17 (19:40) 1.2 0 0.4 0.8 0
09-04-2019 11.1 (18:30) 2.8 (00:00) 7 15.56 (15:40) 6.94 (14:50) 0.8 0 0.2 0.6 0
08-04-2019 15.1 (16:40) 5.3 (00:00) 10.2 11.67 (14:20) 6.11 (14:40) 1.6 1.2 0.4 0 0
07-04-2019 12.5 (15:10) 2.5 (00:00) 7.5 11.67 (19:10) 6.11 (19:10) 1.8 0 0 0 1.8
06-04-2019 9.1 (17:00) 2.3 (00:00) 5.7 18.06 (17:40) 9.17 (17:00) 0.2 0 0 0 0.2
05-04-2019 6.2 (17:40) 0.4 (00:00) 3.3 8.61 (18:10) 3.89 (10:30) 3.6 0 1 1.8 0.8
04-04-2019 12.6 (16:50) -5.7 (-00:0) 3.5 11.11 (16:20) 5.28 (18:10) 0 0 0 0 0
03-04-2019 13.8 (15:10) -1.3 (-00:0) 6.3 14.17 (18:00) 6.39 (18:00) 0 0 0 0 0
02-04-2019 19.1 (15:40) 1.1 (00:00) 10.1 9.72 (18:20) 4.17 (16:50) 0 0 0 0 0
01-04-2019 18.1 (16:20) 4.4 (00:00) 11.3 10.28 (00:30) 5.28 (00:50) 0 0 0 0 0
31-03-2019 16.9 (15:20) 4.3 (00:00) 10.6 14.17 (19:10) 7.22 (11:10) 0 0 0 0 0
30-03-2019 18.5 (16:20) 0.6 (00:00) 9.6 8.89 (14:20) 4.44 (09:40) 0 0 0 0 0
29-03-2019 18.8 (14:20) 1.8 (00:00) 10.3 7.78 (14:50) 3.61 (10:20) 0 0 0 0 0
28-03-2019 18.9 (15:10) -4.4 (-00:0) 7.2 8.33 (10:00) 4.72 (10:00) 0 0 0 0 0
27-03-2019 19.8 (15:20) -5.3 (-00:0) 7.2 12.22 (17:30) 5 (17:50) 0 0 0 0 0
26-03-2019 18.7 (15:20) -4.2 (-00:0) 7.3 12.78 (14:20) 6.11 (13:30) 0 0 0 0 0
25-03-2019 16.4 (13:50) -2.1 (-00:0) 7.1 10.83 (18:00) 5.83 (16:30) 0 0 0 0 0
24-03-2019 20.2 (14:40) -0.9 (-00:0) 9.7 10.28 (15:00) 4.72 (13:40) 0 0 0 0 0
23-03-2019 19.5 (14:50) -1.3 (-00:0) 9.1 9.17 (15:00) 4.17 (16:50) 0 0 0 0 0
22-03-2019 17.5 (15:30) -2.1 (-00:0) 7.7 7.5 (17:50) 3.61 (17:20) 0 0 0 0 0
21-03-2019 15 (15:40) -5.8 (-00:0) 4.6 6.67 (11:20) 3.06 (11:00) 0 0 0 0 0

Gráficas

Temp. máximas Temp. mínimas Temp. medias Precipitaciones Rachas de viento máximas Velocidades máximas media en intervalos de 10 minutos

Datos horarios

Fecha y hora oficial Temperatura (ºC) Velocidad del viento (km/h) Dirección del viento Racha (km/h) Dirección de racha Precipitación (mm) Presión (hPa) Tendencia (hPa) Humedad (%)
2019-04-19 23:00:00 12.3 12 Este 37 Este 0 930.2 2.6 61
2019-04-19 22:00:00 12.6 15 Este 33 Este 0 929.5 2.5 59
2019-04-19 21:00:00 13 15 Este 35 Nordeste 0 928.5 1.6 58
2019-04-19 20:00:00 13.4 12 Este 36 Este 0 927.6 0.7 58
2019-04-19 19:00:00 14 19 Este 39 Este 0 927 -0.5 56
2019-04-19 18:00:00 13.8 17 Este 38 Este 0 926.9 -0.7 60
2019-04-19 17:00:00 11.6 6 Nordeste 15 Nordeste 0 926.9 -0.5 77
2019-04-19 16:00:00 9.8 7 Este 25 Este 0.2 927.5 0.4 84
2019-04-19 15:00:00 9.5 8 Nordeste 22 Este 0.2 927.6 0.7 86
2019-04-19 14:00:00 10 9 Este 29 Este 0 927.4 1.4 76
2019-04-19 13:00:00 10.9 14 Este 36 Este 0 927.1 1.5 73
2019-04-19 12:00:00 11 17 Este 35 Este 0 926.9 1.8 68
2019-04-19 11:00:00 10.6 19 Este 39 Este 0 926 1.9 69
2019-04-19 10:00:00 10 15 Este 35 Este 0 925.6 2 75
2019-04-19 09:00:00 9 12 Este 28 Este 0 925.1 1.9 78
2019-04-19 08:00:00 8.3 12 Este 38 Este 0 924.1 1 80
2019-04-19 07:00:00 8.2 16 Este 32 Este 0 923.6 0.5 79
2019-04-19 06:00:00 7.9 14 Sudeste 34 Este 0 923.2 0.1 80
2019-04-19 05:00:00 8.1 14 Este 42 Este 0 923.1 0.2 79
2019-04-19 04:00:00 8 12 Este 37 Este 0 923.1 0.3 81
2019-04-19 03:00:00 8.2 12 Este 30 Sudeste 0 923.1 0.7 81
2019-04-19 02:00:00 8.3 9 Este 19 Este 0.2 922.9 0.3 81
2019-04-19 01:00:00 8.5 6 Este 13 Sudeste 0.2 922.8 0.3 85
2019-04-19 00:00:00 8.6 3 Este 14 Este 0.6 922.4 0.4 85
2019-04-18 23:00:00 8.7 6 Este 17 Este 0.6 922.6 0.8 85
2019-04-18 22:00:00 8.9 8 Este 19 Este 0.4 922.5 0.6 82
2019-04-18 21:00:00 9.6 9 Este 20 Este 0 922 0.2 76
2019-04-18 20:00:00 9.8 11 Este 21 Este 0 921.8 0 76
2019-04-18 19:00:00 10.1 10 Este 27 Este 0 921.9 0 78
2019-04-18 18:00:00 9.9 12 Este 25 Este 0 921.8 -0.3 79
2019-04-18 17:00:00 10.6 12 Este 24 Sudeste 0.2 921.8 -1.1 72
2019-04-18 16:00:00 11.1 8 Este 24 Este 0 921.9 -1.8 72
2019-04-18 15:00:00 9.8 11 Este 22 Este 0 922.1 -1.3 80
2019-04-18 14:00:00 8.9 8 Este 23 Sudeste 0.8 922.9 -0.5 84
2019-04-18 13:00:00 8.2 12 Este 31 Este 1.4 923.7 0.1 84
2019-04-18 12:00:00 8.6 14 Este 27 Este 0 923.4 0.6 82
2019-04-18 11:00:00 8.6 9 Este 21 Sudeste 0.2 923.4 0.5 83
2019-04-18 10:00:00 8.5 7 Este 18 Este 0.2 923.6 1.3 84
2019-04-18 09:00:00 8.5 6 Este 11 Este 1 922.8 0.5 86
2019-04-18 08:00:00 8.6 5 Este 12 Este 1 922.9 0.7 85
2019-04-18 07:00:00 8.7 3 Este 6 Este 1 922.3 0.1 85
2019-04-18 06:00:00 9 0 Calma 22 Sudoeste 1 922.3 1.5 83
2019-04-18 05:00:00 9.8 12 Sudoeste 19 Sudoeste 0.4 922.2 0.9 79
2019-04-18 04:00:00 10.7 10 Oeste 34 Oeste 0.6 922.2 1 78
2019-04-18 03:00:00 12.3 5 Sur 18 Sur 0 920.8 -0.6 73
2019-04-18 02:00:00 12.4 6 Sudeste 20 Este 0 921.3 -0.7 74
2019-04-18 01:00:00 12.1 13 Sudeste 25 Sudeste 0 921.2 -0.2 78
2019-04-18 00:00:00 12 11 Sudeste 21 Este 0 921.4 1.1 80
2019-04-17 23:00:00 12.4 8 Sudeste 18 Sudeste 0 922 4.2 81
2019-04-17 22:00:00 12.5 4 Este 20 Sudoeste 0.6 921.4 3 84
2019-04-17 21:00:00 13.4 4 Oeste 50 Oeste 2 920.3 1.9 78
2019-04-17 20:00:00 18.4 2 Sur 7 Sudeste 0 917.8 -1 38
2019-04-17 19:00:00 19.5 2 Sudeste 12 Este 0 918.4 -1.4 34
2019-04-17 18:00:00 20.2 8 Este 24 Sur 0 918.4 -1.7 31
2019-04-17 17:00:00 21.2 9 Sur 30 Sur 0 918.8 -1.9 23
2019-04-17 16:00:00 21.7 12 Sur 27 Sur 0 919.8 -1.4 22
2019-04-17 15:00:00 20.6 5 Sudeste 24 Este 0 920.1 -1.1 27
2019-04-17 14:00:00 18 13 Este 35 Este 0 920.7 -0.6 38
2019-04-17 13:00:00 15.5 17 Este 37 Este 0 921.2 -0.4 49
2019-04-17 12:00:00 13.4 14 Este 38 Sudeste 0 921.2 -0.5 57
2019-04-17 11:00:00 12.2 14 Este 33 Este 0 921.3 -0.3 61
2019-04-17 10:00:00 10.9 14 Este 29 Este 0 921.6 0.2 65
2019-04-17 09:00:00 10.2 12 Este 36 Sudeste 0 921.7 0.1 67
2019-04-17 08:00:00 9.8 11 Este 30 Este 0 921.6 -0.3 68
2019-04-17 07:00:00 9.8 12 Este 25 Este 0 921.4 -0.5 69
2019-04-17 06:00:00 9.7 9 Este 17 Este 0 921.6 -1.4 69
2019-04-17 05:00:00 9.7 8 Este 25 Este 0 921.9 -1.7 66
2019-04-17 04:00:00 9.7 13 Este 26 Este 0 921.9 -1.8 62
2019-04-17 03:00:00 10.3 10 Este 23 Este 0 923 -0.7 60
2019-04-17 02:00:00 10.2 6 Este 21 Este 0 923.6 -0.3 56
2019-04-17 01:00:00 11.7 9 Este 22 Sudeste 0 923.7 0 48
2019-04-17 00:00:00 11.1 10 Sudeste 16 Sudeste 0 923.7 0.3 49
2019-04-16 23:00:00 12.1 8 Este 13 Este 0 923.9 0.5 43
2019-04-16 22:00:00 13.1 4 Sudeste 11 Sudeste 0 923.7 0.2 38
2019-04-16 21:00:00 16.2 5 Sur 19 Sur 0 923.4 -0.6 30
2019-04-16 20:00:00 19.5 6 Sur 24 Sur 0 923.4 -1.1 25
2019-04-16 19:00:00 19.8 7 Sudeste 21 Sudeste 0 923.5 -1.8 25
2019-04-16 18:00:00 19.4 6 Este 23 Sudeste 0 924 -2.1 28
2019-04-16 17:00:00 19.3 9 Este 27 Sudeste 0 924.5 -2.4 29
2019-04-16 16:00:00 18.8 12 Sudeste 34 Sudeste 0 925.3 -2.1 30
2019-04-16 15:00:00 17.5 9 Nordeste 20 Nordeste 0 926.1 -2 33
2019-04-16 14:00:00 15.8 7 Nordeste 19 Sudeste 0 926.9 -1.4 39
2019-04-16 13:00:00 14.5 4 Este 17 Nordeste 4.4 927.4 -1.1 48
2019-04-16 12:00:00 18.5 4 Este 13 Este 0.2 928.1 -0.5 15
2019-04-16 11:00:00 10.6 3 Sudeste 10 Noroeste 0 928.3 0.2 73
2019-04-16 10:00:00 6.1 2 Nordeste 7 Nordeste 0 928.5 0.8 88
2019-04-16 09:00:00 4.3 0 Calma 5 Este 0 928.6 1.1 87
2019-04-16 08:00:00 1.8 3 Este 6 Sudoeste 0 928.1 0.8 87
2019-04-16 07:00:00 1.5 2 Nordeste 4 Este 0 927.7 0.7 86
2019-04-16 06:00:00 2.1 0 Calma 4 Nordeste 0 927.5 0.6 84
2019-04-16 05:00:00 3 0 Calma 5 Este 0 927.3 0.3 83
2019-04-16 04:00:00 4.2 4 Oeste 10 Sudoeste 0 927 0.2 82
2019-04-16 03:00:00 5.4 3 Sudoeste 7 Nordeste 0 926.9 0.9 79
2019-04-16 02:00:00 7.8 6 Oeste 14 Sudoeste 0 927 1.4 77
2019-04-16 01:00:00 8.5 4 Oeste 18 Sudoeste 0 926.8 1.7 74
2019-04-16 00:00:00 9.5 7 Sudoeste 17 Sudoeste 0 926 1.7 69
2019-04-15 23:00:00 10.5 5 Sudoeste 26 Sudoeste 0 925.6 2.9 63
2019-04-15 22:00:00 12 14 Sudoeste 35 Oeste 0 925.1 3.5 56
2019-04-15 21:00:00 13.3 13 Oeste 36 Oeste 0 924.3 4.3 45
2019-04-15 20:00:00 14.6 14 Oeste 41 Oeste 0 922.7 3.7 43
2019-04-15 19:00:00 16.5 15 Oeste 58 Oeste 0 921.6 2.4 45
2019-04-15 18:00:00 20.5 21 Oeste 54 Oeste 0 920 0.6 38
2019-04-15 17:00:00 20.5 9 Oeste 47 Oeste 0 919 -1.1 44
2019-04-15 16:00:00 23.6 30 Sudoeste 61 Sudoeste 0 919.2 -1.7 26
2019-04-15 15:00:00 22.2 18 Sur 48 Sudoeste 0 919.4 -2.1 30
2019-04-15 14:00:00 21.9 13 Sur 45 Sudoeste 0 920.1 -1.6 36
2019-04-15 13:00:00 21.2 18 Sudoeste 37 Sudoeste 0 920.9 -1.1 39
2019-04-15 12:00:00 17.9 4 Este 13 Sudeste 0 921.5 -1.2 52
2019-04-15 11:00:00 15.3 8 Sudeste 15 Este 0 921.7 -1.2 58
2019-04-15 10:00:00 12.6 9 Este 17 Sudeste 0 922 -0.7 67
2019-04-15 09:00:00 9.8 6 Sudeste 10 Sudeste 0 922.7 0 76
2019-04-15 08:00:00 7.7 2 Sudoeste 13 Este 0 922.9 -0.5 77
2019-04-15 07:00:00 8.8 5 Este 15 Este 0 922.7 -1.3 77
2019-04-15 06:00:00 8.5 6 Este 12 Este 0 922.7 -2.1 79
2019-04-15 05:00:00 7.7 4 Este 9 Este 0 923.4 -1.9 80
2019-04-15 04:00:00 9.1 5 Este 12 Este 0 924 -1.6 77
2019-04-15 03:00:00 8.5 0 Calma 10 Este 0 924.8 -0.8 78
2019-04-15 02:00:00 8.8 4 Este 9 Este 0 925.3 -0.4 77
2019-04-15 01:00:00 9.4 3 Este 9 Sudeste 0 925.6 0 75
2019-04-15 00:00:00 10 5 Este 12 Sudeste 0 925.6 0.2 74
2019-04-14 23:00:00 10.7 3 Este 5 Este 0 925.7 0.3 71
2019-04-14 22:00:00 13.3 3 Este 5 Este 0 925.6 0.2 62
2019-04-14 21:00:00 16.8 0 Calma 5 Sudoeste 0 925.4 -0.1 53
2019-04-14 20:00:00 18.9 2 Sur 8 Oeste 0 925.4 -0.6 42
2019-04-14 19:00:00 19.6 4 Oeste 15 Oeste 0 925.4 -1.2 39
2019-04-14 18:00:00 19.7 4 Noroeste 17 Oeste 0 925.5 -1.5 39
2019-04-14 17:00:00 20.9 7 Sudoeste 19 Sudoeste 0 926 -1.2 35
2019-04-14 16:00:00 18.9 4 Noroeste 23 Sudoeste 0 926.6 -0.9 44
2019-04-14 15:00:00 18.3 7 Oeste 21 Sudoeste 0 927 -0.6 46
2019-04-14 14:00:00 16.8 12 Sudoeste 21 Sudoeste 0 927.2 -0.3 52
2019-04-14 13:00:00 15.7 12 Sudoeste 24 Sudoeste 0 927.5 0.4 57
2019-04-14 12:00:00 14.8 12 Sudoeste 26 Sudoeste 0 927.6 0.5 61
2019-04-14 11:00:00 14.8 12 Oeste 24 Oeste 0 927.5 0.6 61
2019-04-14 10:00:00 13.7 13 Sudoeste 25 Sudoeste 0 927.1 0.4 66
2019-04-14 09:00:00 11.2 7 Oeste 16 Oeste 0 927.1 0.3 73
2019-04-14 08:00:00 10.9 6 Sudoeste 17 Sudoeste 0 926.9 0 71
2019-04-14 07:00:00 10.9 8 Oeste 21 Oeste 0 926.7 -0.5 67
2019-04-14 06:00:00 10.3 9 Sudoeste 19 Oeste 0 926.8 -0.6 67
2019-04-14 05:00:00 6.1 0 Calma 5 Noroeste 0 926.9 -0.6 71
2019-04-14 04:00:00 5.9 3 Este 6 Este 0 927.2 -0.2 67
2019-04-14 03:00:00 5.2 0 Calma 6 Este 0 927.4 0 70
2019-04-14 02:00:00 6 0 Calma 5 Este 0 927.5 0 66
2019-04-14 01:00:00 7.2 2 Este 3 Este 0 927.4 0.1 61
2019-04-14 00:00:00 8.9 2 Este 4 Nordeste 0 927.4 0.6 53
2019-04-13 23:00:00 10.2 0 Calma 3 Este 0 927.5 0.9 46
2019-04-13 22:00:00 12 0 Calma 3 Oeste 0 927.3 0.8 43
2019-04-13 21:00:00 15.3 2 Sudoeste 9 Noroeste 0 926.8 0.1 29
2019-04-13 20:00:00 17 4 Oeste 17 Oeste 0 926.6 -0.2 22
2019-04-13 19:00:00 18.5 7 Oeste 23 Noroeste 0 926.5 -0.9 21
2019-04-13 18:00:00 19.2 6 Oeste 22 Sudoeste 0 926.7 -1 18
2019-04-13 17:00:00 19.7 6 Oeste 21 Oeste 0 926.8 -1.3 15
2019-04-13 16:00:00 19.6 10 Oeste 65 Nordeste 0 927.4 -1.3 14
2019-04-13 15:00:00 19.1 9 Sudoeste 19 Sudoeste 0 927.7 -1.5 14
2019-04-13 14:00:00 17.4 5 Sudoeste 19 Norte 0 928.1 -1.3 21
2019-04-13 13:00:00 16.1 5 Oeste 16 Oeste 0 928.7 -0.6 22
2019-04-13 12:00:00 13.7 5 Sudoeste 13 Oeste 0 929.2 -0.1 23
2019-04-13 11:00:00 9.4 3 Norte 6 Norte 0 929.4 0.4 53
2019-04-13 10:00:00 4.5 3 Este 9 Este 0 929.3 0.8 63
2019-04-13 09:00:00 0.8 5 Sudeste 9 Sudeste 0 929.3 1 70
2019-04-13 08:00:00 -4.3 0 Calma 5 Este 0 929 1 82
2019-04-13 07:00:00 -3.9 0 Calma 5 Este 0 928.5 0.4 81
2019-04-13 06:00:00 -3.3 0 Calma 5 Este 0 928.3 -0.1 81
2019-04-13 05:00:00 -2.5 3 Este 6 Este 0 928 -0.6 81
2019-04-13 04:00:00 -2.1 4 Este 7 Este 0 928.1 -0.3 80
2019-04-13 03:00:00 -1.3 0 Calma 4 Este 0 928.4 0 77
2019-04-13 02:00:00 0.3 0 Calma 6 Sudoeste 0 928.6 0.4 74
2019-04-13 01:00:00 1.8 3 Sudoeste 8 Sudoeste 0 928.4 0.7 67
2019-04-13 00:00:00 3.7 3 Sur 6 Sudoeste 0 928.4 1.4 62
2019-04-12 23:00:00 7.4 0 Calma 12 Nordeste 0 928.2 1.5 50
2019-04-12 22:00:00 8.5 4 Norte 14 Norte 0 927.7 1 42
2019-04-12 21:00:00 11.8 6 Noroeste 23 Norte 0 927 0.4 31
2019-04-12 20:00:00 13.7 12 Noroeste 28 Noroeste 0 926.7 -0.1 22
2019-04-12 19:00:00 14.6 12 Norte 27 Noroeste 0 926.7 -0.8 23
2019-04-12 18:00:00 14.7 12 Noroeste 28 Noroeste 0 926.6 -1.5 22
2019-04-12 17:00:00 15.1 10 Noroeste 28 Noroeste 0 926.8 -1.4 27
2019-04-12 16:00:00 14.5 13 Norte 31 Noroeste 0 927.5 -1.1 30
2019-04-12 15:00:00 13.9 13 Noroeste 31 Noroeste 0 928.1 -0.8 34
2019-04-12 14:00:00 13.1 11 Noroeste 26 Noroeste 0 928.2 -0.8 37
2019-04-12 13:00:00 11.9 9 Noroeste 23 Nordeste 0 928.6 -0.4 43
2019-04-12 12:00:00 10.6 6 Sudoeste 15 Sudoeste 0 928.9 -0.1 51
2019-04-12 11:00:00 8.8 4 Sudoeste 14 Sudoeste 0 929 0.2 58
2019-04-12 10:00:00 6.5 3 Oeste 10 Oeste 0 929 0.4 66
2019-04-12 09:00:00 2.4 0 Calma 3 Noroeste 0 929 0.6 80
2019-04-12 08:00:00 -2.1 0 Calma 4 Sudoeste 0 928.8 0.4 86
2019-04-12 07:00:00 -1.9 2 Sudoeste 4 Oeste 0 928.6 0 85
2019-04-12 06:00:00 -1.3 0 Calma 3 Este 0 928.4 -0.4 84
2019-04-12 05:00:00 -0.5 2 Sudoeste 5 Sudoeste 0 928.4 -0.8 82
2019-04-12 04:00:00 0.7 3 Sudoeste 5 Sudoeste 0 928.6 -0.6 81
2019-04-12 03:00:00 2.4 2 Sur 10 Noroeste 0 928.8 -0.3 79
2019-04-12 02:00:00 3.5 3 Sudoeste 9 Norte 0 929.2 0.1 78
2019-04-12 01:00:00 4.7 4 Norte 14 Noroeste 0 929.2 0.4 75
2019-04-12 00:00:00 4.8 2 Sudeste 10 Norte 0 929.1 0.9 73
2019-04-11 23:00:00 5.9 3 Nordeste 19 Norte 0 929.1 1.2 70
2019-04-11 22:00:00 7.2 7 Nordeste 18 Norte 0 928.8 1.1 64
2019-04-11 21:00:00 9 10 Nordeste 23 Nordeste 0 928.2 0.5 56
2019-04-11 20:00:00 10.2 10 Norte 25 Nordeste 0 927.9 0 52
2019-04-11 19:00:00 11.1 8 Norte 23 Norte 0 927.7 -0.4 47
2019-04-11 18:00:00 11.7 13 Noroeste 22 Noroeste 0 927.7 -0.9 41
2019-04-11 17:00:00 11.5 11 Norte 26 Noroeste 0 927.9 -0.6 40
2019-04-11 16:00:00 11.6 8 Norte 26 Noroeste 0 928.1 -0.7 43
2019-04-11 15:00:00 10.9 13 Norte 30 Norte 0 928.6 -0.4 42
2019-04-11 14:00:00 11 9 Norte 24 Nordeste 0 928.5 -0.3 43
2019-04-11 13:00:00 10.2 10 Norte 27 Noroeste 0 928.8 0 47
2019-04-11 12:00:00 9.5 11 Norte 27 Norte 0 929 0.4 50
2019-04-11 11:00:00 8.1 9 Sudoeste 17 Oeste 0 928.8 0.6 63
2019-04-11 10:00:00 6.8 5 Oeste 12 Oeste 0 928.8 0.9 68
2019-04-11 09:00:00 3.4 5 Sudoeste 11 Oeste 0 928.6 0.7 78
2019-04-11 08:00:00 -0.5 4 Sudoeste 7 Oeste 0 928.2 0.6 87
2019-04-11 07:00:00 0 2 Sudoeste 8 Sudoeste 0 927.9 0.3 86
2019-04-11 06:00:00 0.6 4 Sudoeste 9 Sudoeste 0 927.9 0.3 86
2019-04-11 05:00:00 1.3 6 Sudoeste 10 Sudoeste 0 927.6 -0.2 85
2019-04-11 04:00:00 1.7 4 Sudoeste 13 Oeste 0 927.6 0 83
2019-04-11 03:00:00 2 4 Oeste 9 Oeste 0 927.6 0.2 84
2019-04-11 02:00:00 2.7 4 Oeste 11 Oeste 0 927.8 0.8 82
2019-04-11 01:00:00 3.2 4 Oeste 7 Noroeste 0 927.6 1.4 78
2019-04-11 00:00:00 5.1 2 Noroeste 11 Norte 0 927.4 2.5 74
2019-04-10 23:00:00 5.8 3 Norte 13 Nordeste 0 927 2.9 68
2019-04-10 22:00:00 6.8 6 Nordeste 16 Norte 0 926.2 2.7 66
2019-04-10 21:00:00 7.6 6 Norte 26 Nordeste 0 924.9 1.7 62
2019-04-10 20:00:00 10.1 15 Norte 32 Noroeste 0 924.1 0.8 54
2019-04-10 19:00:00 10.9 11 Norte 24 Norte 0 923.5 0 45
2019-04-10 18:00:00 11.6 8 Noroeste 22 Noroeste 0 923.2 -0.6 47
2019-04-10 17:00:00 11.4 7 Oeste 27 Noroeste 0 923.3 -0.4 51
2019-04-10 16:00:00 9.2 10 Noroeste 29 Noroeste 0 923.5 -0.7 55
2019-04-10 15:00:00 8.5 11 Noroeste 31 Noroeste 0 923.8 -0.3 59
2019-04-10 14:00:00 8.2 8 Noroeste 27 Oeste 0.6 923.7 -0.2 67
2019-04-10 13:00:00 6.3 10 Noroeste 24 Oeste 0.2 924.2 0.7 73
2019-04-10 12:00:00 6.5 5 Oeste 20 Oeste 0 924.1 1 72
2019-04-10 11:00:00 5.7 7 Oeste 22 Oeste 0.2 923.9 1.2 79
2019-04-10 10:00:00 5 4 Oeste 19 Oeste 0.2 923.5 1.1 82
2019-04-10 09:00:00 5 8 Oeste 22 Oeste 0 923.1 0.8 78
2019-04-10 08:00:00 4.7 9 Oeste 24 Oeste 0 922.7 0.4 77
2019-04-10 07:00:00 4.8 7 Oeste 27 Oeste 0 922.4 0.3 76
2019-04-10 06:00:00 5.1 10 Oeste 27 Oeste 0 922.3 0.2 75
2019-04-10 05:00:00 5.5 10 Oeste 33 Oeste 0 922.3 0 74
2019-04-10 04:00:00 5.8 12 Oeste 31 Oeste 0 922.1 -0.2 75
2019-04-10 03:00:00 6 10 Oeste 25 Oeste 0 922.1 -0.1 75
2019-04-10 02:00:00 6.2 9 Oeste 35 Oeste 0 922.3 0.4 75
2019-04-10 01:00:00 6.5 14 Oeste 28 Oeste 0 922.3 0.8 73
2019-04-10 00:00:00 6.5 10 Oeste 26 Oeste 0 922.2 1.4 70
2019-04-09 23:00:00 5.7 3 Sudoeste 19 Sudoeste 0 921.9 1.5 71
2019-04-09 22:00:00 6.4 6 Sudoeste 23 Oeste 0 921.5 1.3 71
2019-04-09 21:00:00 8.1 11 Oeste 36 Oeste 0 920.8 0.6 59
2019-04-09 20:00:00 8.8 5 Oeste 28 Oeste 0 920.4 0.3 64
2019-04-09 19:00:00 10.2 12 Oeste 37 Oeste 0 920.2 -0.3 53
2019-04-09 18:00:00 10.4 14 Oeste 45 Oeste 0 920.2 -0.2 49
2019-04-09 17:00:00 9.8 18 Oeste 44 Oeste 0 920.1 -0.6 56
2019-04-09 16:00:00 8.5 9 Oeste 56 Oeste 0 920.5 -0.3 73
2019-04-09 15:00:00 7 19 Sudoeste 45 Oeste 0.2 920.4 -0.7 77
2019-04-09 14:00:00 7.2 13 Oeste 39 Oeste 0.4 920.7 -0.6 76
2019-04-09 13:00:00 7.4 16 Oeste 40 Sudoeste 0 920.8 -0.9 74
2019-04-09 12:00:00 8.3 16 Sudoeste 38 Sudoeste 0 921.1 -0.6 67
2019-04-09 11:00:00 7.7 15 Sudoeste 30 Sudoeste 0.2 921.3 -0.3 75
2019-04-09 10:00:00 5.4 15 Sudoeste 30 Sudoeste 0 921.7 0.1 78
2019-04-09 09:00:00 5.1 10 Sudoeste 21 Sudoeste 0 921.7 -0.1 78
2019-04-09 08:00:00 2.8 3 Sudoeste 7 Sudoeste 0 921.6 -0.3 84
2019-04-09 07:00:00 2.8 2 Norte 10 Oeste 0 921.6 -0.4 83
2019-04-09 06:00:00 3 2 Noroeste 8 Sudoeste 0 921.8 -0.3 82
2019-04-09 05:00:00 3.4 5 Sudoeste 18 Sudoeste 0 921.9 -0.3 81
2019-04-09 04:00:00 4 5 Oeste 20 Oeste 0 922 0 79
2019-04-09 03:00:00 4.8 9 Sudoeste 22 Sudoeste 0 922.1 0.3 78
2019-04-09 02:00:00 4.5 5 Sudoeste 17 Sudoeste 0 922.2 0.6 78
2019-04-09 01:00:00 5.6 5 Sudoeste 21 Sudoeste 0 922 1 72
2019-04-09 00:00:00 7.3 7 Sudoeste 28 Oeste 0 921.8 1.2 63
2019-04-08 23:00:00 8.6 11 Sudoeste 27 Oeste 0 921.6 1.2 58
2019-04-08 22:00:00 9.4 6 Oeste 21 Oeste 0 921 0.4 55
2019-04-08 21:00:00 10.4 9 Oeste 24 Oeste 0 920.6 -0.3 49
2019-04-08 20:00:00 12.3 10 Oeste 23 Sudoeste 0 920.4 -0.7 40
2019-04-08 19:00:00 13.3 10 Oeste 23 Oeste 0 920.6 -0.7 39
2019-04-08 18:00:00 13.6 10 Oeste 32 Oeste 0 920.9 -1 38
2019-04-08 17:00:00 14.3 10 Oeste 36 Oeste 0 921.1 -0.9 40
2019-04-08 16:00:00 14.5 13 Oeste 29 Noroeste 0 921.3 -0.6 38
2019-04-08 15:00:00 12.8 10 Oeste 42 Sudoeste 0 921.9 0.1 49
2019-04-08 14:00:00 12.1 17 Sudoeste 39 Oeste 0 922 0.6 52
2019-04-08 13:00:00 12 12 Oeste 33 Oeste 0 921.9 0.6 55
2019-04-08 12:00:00 11 12 Oeste 27 Oeste 0 921.8 0.8 64
2019-04-08 11:00:00 10.2 11 Oeste 30 Oeste 0 921.4 1.2 71
2019-04-08 10:00:00 8.8 13 Oeste 31 Oeste 0 921.3 1.3 78
2019-04-08 09:00:00 8 12 Sudoeste 26 Sudoeste 0 921 0.9 83
2019-04-08 08:00:00 7.3 16 Sudoeste 31 Sudoeste 0 920.2 -0.1 86
2019-04-08 07:00:00 7.1 7 Sudoeste 15 Sudoeste 0.4 920 -0.4 87
2019-04-08 06:00:00 6.6 3 Sudoeste 8 Sudoeste 0.4 920.1 -0.4 88
2019-04-08 05:00:00 6.2 2 Este 8 Este 0 920.3 -0.5 88
2019-04-08 04:00:00 6.2 3 Este 8 Este 0 920.4 -0.6 87
2019-04-08 03:00:00 5.9 0 Calma 8 Este 0 920.5 -0.9 87
2019-04-08 02:00:00 5.6 4 Este 13 Este 0.4 920.8 -1.1 87
2019-04-08 01:00:00 5.4 5 Este 17 Este 0.4 921 -1.3 85
2019-04-08 00:00:00 5.3 8 Este 16 Este 0.2 921.4 -0.6 83
2019-04-07 23:00:00 5.3 5 Este 10 Este 0.8 921.9 0.1 83
2019-04-07 22:00:00 5.6 3 Sur 21 Sudoeste 0.4 922.3 1.8 80
2019-04-07 21:00:00 6.1 8 Sudoeste 26 Sudoeste 0.4 922 1.6 80
2019-04-07 20:00:00 7 15 Sudoeste 42 Sudoeste 0 921.8 1.5 74
2019-04-07 19:00:00 10.5 18 Sudoeste 37 Sudoeste 0 920.5 0.4 41
2019-04-07 18:00:00 11.8 14 Sudoeste 32 Sudoeste 0 920.4 -0.1 34
2019-04-07 17:00:00 11.9 14 Sudoeste 31 Oeste 0 920.3 -0.2 31
2019-04-07 16:00:00 12.4 15 Sudoeste 33 Sudoeste 0 920.1 -0.4 31
2019-04-07 15:00:00 12 13 Sudoeste 34 Sudoeste 0 920.5 0.1 33
2019-04-07 14:00:00 8.9 12 Sudoeste 30 Sudoeste 0 920.5 0.6 46
2019-04-07 13:00:00 8.2 13 Sudoeste 31 Sudoeste 0 920.5 1.2 50
2019-04-07 12:00:00 7.1 14 Sudoeste 30 Sudoeste 0 920.4 1.7 56
2019-04-07 11:00:00 5.4 15 Sudoeste 27 Sudoeste 0 919.9 2.3 64
2019-04-07 10:00:00 4.1 13 Oeste 28 Oeste 0 919.3 2.5 69
2019-04-07 09:00:00 2.9 12 Oeste 30 Oeste 0 918.7 2.8 74
2019-04-07 08:00:00 2.6 9 Oeste 28 Oeste 0 917.6 2.2 77
2019-04-07 07:00:00 3.1 12 Oeste 28 Oeste 0 916.8 1.9 74
2019-04-07 06:00:00 3.4 11 Oeste 27 Oeste 0 915.9 1.2 74
2019-04-07 05:00:00 3.5 13 Oeste 32 Oeste 0 915.4 1 75
2019-04-07 04:00:00 3 10 Oeste 25 Oeste 0 914.9 0.8 79
2019-04-07 03:00:00 3 10 Oeste 27 Oeste 0 914.7 1 78
2019-04-07 02:00:00 3.1 13 Sudoeste 31 Oeste 0 914.4 1.3 76
2019-04-07 01:00:00 3.7 14 Oeste 34 Oeste 0 914.1 1.6 70
2019-04-07 00:00:00 4.7 14 Sudoeste 36 Oeste 0 913.7 1.8 65
2019-04-06 23:00:00 5.2 14 Oeste 49 Oeste 0 913.1 2 61
2019-04-06 22:00:00 5.9 14 Oeste 39 Oeste 0.2 912.5 2 60
2019-04-06 21:00:00 4.1 5 Noroeste 45 Oeste 0 911.9 2.1 73
2019-04-06 20:00:00 6.9 16 Oeste 40 Oeste 0 911.1 1.5 59
2019-04-06 19:00:00 7.1 15 Oeste 50 Oeste 0 910.5 0.7 58
2019-04-06 18:00:00 7.5 20 Sudoeste 65 Oeste 0 909.8 -0.4 66
2019-04-06 17:00:00 8.6 33 Sudoeste 59 Sudoeste 0 909.6 -0.7 61
2019-04-06 16:00:00 8.2 15 Oeste 54 Sudoeste 0 909.8 -0.6 60
2019-04-06 15:00:00 7.2 22 Sudoeste 56 Oeste 0 910.2 -0.7 68
2019-04-06 14:00:00 7.6 28 Sudoeste 57 Sudoeste 0 910.3 -0.5 63
2019-04-06 13:00:00 7.8 22 Sudoeste 46 Sudoeste 0 910.4 -0.4 57
2019-04-06 12:00:00 5.9 22 Sudoeste 41 Sudoeste 0 910.9 0.2 62
2019-04-06 11:00:00 4.6 21 Sudoeste 38 Sudoeste 0 910.8 0.2 72
2019-04-06 10:00:00 3.6 18 Sudoeste 34 Sudoeste 0 910.8 0.3 78
2019-04-06 09:00:00 2.7 14 Sudoeste 30 Sudoeste 0 910.7 0.4 81
2019-04-06 08:00:00 2.8 17 Sudoeste 33 Sudoeste 0 910.6 0.1 77
2019-04-06 07:00:00 2.8 13 Sudoeste 31 Oeste 0 910.5 -0.1 78
2019-04-06 06:00:00 3 10 Sudoeste 26 Sudoeste 0 910.3 -0.5 78
2019-04-06 05:00:00 3.2 11 Oeste 23 Oeste 0 910.5 -0.3 79
2019-04-06 04:00:00 3.1 8 Sudoeste 28 Oeste 0 910.6 -0.1 80
2019-04-06 03:00:00 3.1 8 Sudoeste 30 Sudoeste 0 910.8 0.3 81
2019-04-06 02:00:00 3 18 Sudoeste 33 Oeste 0 910.8 0.4 80
2019-04-06 01:00:00 2.6 10 Sudoeste 20 Sudoeste 0 910.7 1.2 84
2019-04-06 00:00:00 2.4 10 Sudoeste 25 Oeste 0 910.5 1.4 84
2019-04-05 23:00:00 0.7 4 Oeste 10 Oeste 0 910.4 1.6 86
2019-04-05 22:00:00 0.7 2 Noroeste 8 Sudoeste 0 909.5 0.3 84
2019-04-05 21:00:00 2.1 5 Sudoeste 15 Sudoeste 0 909.1 0.6 82
2019-04-05 20:00:00 2.4 6 Sudeste 16 Este 0.2 908.8 0.8 83
2019-04-05 19:00:00 2.4 4 Oeste 31 Oeste 0.6 909.2 0.8 82
2019-04-05 18:00:00 6 4 Oeste 15 Sudoeste 0 908.5 -0.4 66
2019-04-05 17:00:00 5.4 3 Sudoeste 14 Sudoeste 0 908 -0.7 68
2019-04-05 16:00:00 4.5 7 Oeste 21 Sudoeste 0.2 908.4 -0.4 77
2019-04-05 15:00:00 3.5 6 Oeste 28 Oeste 1.2 908.9 0 83
2019-04-05 14:00:00 4.5 6 Oeste 23 Oeste 0.2 908.7 0.1 78
2019-04-05 13:00:00 4.9 2 Oeste 18 Oeste 0.2 908.8 0.9 80
2019-04-05 12:00:00 3.9 2 Sudoeste 18 Oeste 0.8 908.9 1.2 82
2019-04-05 11:00:00 3.8 9 Oeste 30 Oeste 0.2 908.6 0.8 80
2019-04-05 10:00:00 5.2 2 Noroeste 5 Este 0 907.9 0.2 80
2019-04-05 09:00:00 4.7 3 Nordeste 8 Sur 0 907.7 0 82
2019-04-05 08:00:00 4.4 3 Sudeste 8 Sudeste 0 907.8 -0.1 80
2019-04-05 07:00:00 4 3 Sur 8 Sudoeste 0 907.7 -0.8 81
2019-04-05 06:00:00 3.9 4 Sudeste 13 Este 0 907.7 -1.4 80
2019-04-05 05:00:00 3.6 9 Sudeste 14 Sudeste 0 907.9 -1.7 80
2019-04-05 04:00:00 3.9 6 Sudeste 14 Sudeste 0 908.5 -1.5 78
2019-04-05 03:00:00 3.9 3 Sudeste 9 Sudeste 0 909.1 -1.3 77
2019-04-05 02:00:00 4.1 0 Calma 5 Noroeste 0 909.6 -1.1 71
2019-04-05 01:00:00 4.3 3 Noroeste 11 Noroeste 0 910 -0.8 69
2019-04-05 00:00:00 5 5 Noroeste 17 Noroeste 0 910.4 0.1 64
2019-04-04 23:00:00 5.7 4 Oeste 23 Oeste 0 910.7 0.4 56
2019-04-04 22:00:00 7.1 9 Noroeste 27 Noroeste 0 910.8 0.3 43
2019-04-04 21:00:00 8.8 6 Oeste 26 Oeste 0 910.3 -0.2 29
2019-04-04 20:00:00 9.6 9 Oeste 26 Oeste 0 910.3 -0.7 26
2019-04-04 19:00:00 10.7 13 Oeste 34 Sudoeste 0 910.5 -1.4 21
2019-04-04 18:00:00 11.3 17 Oeste 39 Oeste 0 910.5 -2.2 17
2019-04-04 17:00:00 12.2 14 Oeste 40 Sudoeste 0 911 -2.6 19
2019-04-04 16:00:00 11.9 13 Sudoeste 36 Sudoeste 0 911.9 -2.6 22
2019-04-04 15:00:00 11.6 13 Sudoeste 33 Sudoeste 0 912.7 -2.4 23
2019-04-04 14:00:00 9.8 10 Oeste 32 Sudoeste 0 913.6 -1.7 29
2019-04-04 13:00:00 8 13 Sudoeste 29 Sudoeste 0 914.5 -0.5 33
2019-04-04 12:00:00 7 12 Sudoeste 28 Sudoeste 0 915.1 0.3 39
2019-04-04 11:00:00 5.3 9 Oeste 27 Sudoeste 0 915.3 0.9 45
2019-04-04 10:00:00 2.8 12 Sudoeste 28 Sudoeste 0 915 0.7 54
2019-04-04 09:00:00 -0.6 0 Calma 6 Oeste 0 914.8 0.6 75
2019-04-04 08:00:00 -5.4 3 Sudeste 11 Sudoeste 0 914.4 -0.1 81
2019-04-04 07:00:00 -5.5 3 Sur 5 Sudoeste 0 914.3 -0.3 82
2019-04-04 06:00:00 -5.6 3 Sudoeste 6 Sudoeste 0 914.2 -0.9 78
2019-04-04 05:00:00 -5.1 0 Calma 5 Sudoeste 0 914.5 -0.9 76
2019-04-04 04:00:00 -4.5 0 Calma 5 Sudoeste 0 914.6 -1.3 74
2019-04-04 03:00:00 -3.6 0 Calma 5 Sudoeste 0 915.1 -1 74
2019-04-04 02:00:00 -2.8 0 Calma 6 Sudoeste 0 915.4 -0.5 78
2019-04-04 01:00:00 -2.2 0 Calma 7 Sudoeste 0 915.9 0.4 73
2019-04-04 00:00:00 -1.3 3 Sudoeste 6 Sudoeste 0 916.1 1.5 66
2019-04-03 23:00:00 1.6 2 Sudoeste 12 Norte 0 915.9 1.5 60
2019-04-03 22:00:00 3.4 6 Norte 28 Noroeste 0 915.5 0.9 57
2019-04-03 21:00:00 6.6 11 Noroeste 31 Noroeste 0 914.6 0 32
2019-04-03 20:00:00 7.8 13 Noroeste 40 Noroeste 0 914.4 0 32
2019-04-03 19:00:00 8.7 12 Noroeste 38 Noroeste 0 914.6 -0.4 36
2019-04-03 18:00:00 8.7 23 Noroeste 51 Noroeste 0 914.6 -0.8 41
2019-04-03 17:00:00 10.6 16 Noroeste 39 Noroeste 0 914.4 -1.7 28
2019-04-03 16:00:00 11.3 15 Noroeste 39 Noroeste 0 915 -1.8 31
2019-04-03 15:00:00 13.3 12 Oeste 34 Oeste 0 915.4 -2.2 21
2019-04-03 14:00:00 11.7 10 Oeste 36 Oeste 0 916.1 -1.7 27
2019-04-03 13:00:00 10.6 14 Oeste 37 Oeste 0 916.8 -1.3 34
2019-04-03 12:00:00 7.1 11 Oeste 27 Oeste 0 917.6 -0.6 57
2019-04-03 11:00:00 5.9 8 Oeste 24 Oeste 0 917.8 -0.6 66
2019-04-03 10:00:00 4.8 7 Oeste 19 Oeste 0 918.1 -0.7 76
2019-04-03 09:00:00 2.7 0 Calma 5 Sudoeste 0 918.2 -0.7 84
2019-04-03 08:00:00 1.6 0 Calma 4 Sudoeste 0 918.4 -1.3 84
2019-04-03 07:00:00 1.1 3 Sudoeste 4 Sudoeste 0 918.8 -1.6 83
2019-04-03 06:00:00 1.7 2 Oeste 9 Oeste 0 918.9 -1.8 81
2019-04-03 05:00:00 2.9 4 Oeste 11 Oeste 0 919.7 -1.3 79
2019-04-03 04:00:00 3.9 4 Oeste 10 Oeste 0 920.4 -0.9 79
2019-04-03 03:00:00 4.7 6 Sudoeste 14 Sudoeste 0 920.7 -0.2 76
2019-04-03 02:00:00 6.2 4 Oeste 21 Oeste 0 921 0 72
2019-04-03 01:00:00 8 9 Oeste 22 Oeste 0 921.3 0.2 67
2019-04-03 00:00:00 8.7 6 Sudoeste 12 Oeste 0 920.9 0 49
2019-04-02 23:00:00 7.2 5 Norte 12 Norte 0 921 0.1 55
2019-04-02 22:00:00 10.2 4 Sudoeste 12 Oeste 0 921.1 0.3 40
2019-04-02 21:00:00 13.7 7 Oeste 22 Noroeste 0 920.9 -0.3 33
2019-04-02 20:00:00 15.8 8 Oeste 28 Oeste 0 920.9 -0.8 30
2019-04-02 19:00:00 17.1 10 Oeste 35 Oeste 0 920.8 -1.6 25
2019-04-02 18:00:00 16.6 9 Oeste 28 Oeste 0 921.2 -1.8 29
2019-04-02 17:00:00 17.9 9 Oeste 29 Sudoeste 0 921.7 -2.3 31
2019-04-02 16:00:00 17.2 13 Oeste 30 Oeste 0 922.4 -2.1 32
2019-04-02 15:00:00 17.5 11 Sudoeste 24 Sudoeste 0 923 -2 33
2019-04-02 14:00:00 15 7 Oeste 25 Sudoeste 0 924 -1.2 43
2019-04-02 13:00:00 15.3 9 Oeste 22 Oeste 0 924.5 -0.6 44
2019-04-02 12:00:00 13.3 4 Oeste 18 Sudoeste 0 925 0.1 52
2019-04-02 11:00:00 10.6 3 Sur 12 Este 0 925.2 0.5 60
2019-04-02 10:00:00 5.8 5 Nordeste 12 Este 0 925.1 0.8 82
2019-04-02 09:00:00 3.7 5 Este 11 Sudeste 0 924.9 0.6 88
2019-04-02 08:00:00 3 4 Sudeste 10 Este 0 924.7 0.3 87
2019-04-02 07:00:00 2.5 6 Sudeste 10 Sudeste 0 924.3 -0.1 86
2019-04-02 06:00:00 1.2 0 Calma 5 Sudoeste 0 924.3 -0.1 81
2019-04-02 05:00:00 1.8 2 Sudoeste 5 Este 0 924.4 -0.1 78
2019-04-02 04:00:00 2.9 2 Sudeste 7 Sudeste 0 924.4 -0.2 77
2019-04-02 03:00:00 4.5 3 Sudeste 8 Este 0 924.4 0 69
2019-04-02 02:00:00 5.1 5 Sudeste 9 Este 0 924.5 0.6 65
2019-04-02 01:00:00 4.6 4 Este 7 Sudeste 0 924.6 1.2 66
2019-04-02 00:00:00 4.5 3 Este 6 Este 0 924.4 1.8 59
2019-04-01 23:00:00 6 0 Calma 5 Este 0 923.9 1.9 54
2019-04-01 22:00:00 8.7 0 Calma 8 Nordeste 0 923.4 1.7 48
2019-04-01 21:00:00 12.3 4 Norte 14 Noroeste 0 922.6 0.9 37
2019-04-01 20:00:00 14.6 4 Noroeste 10 Noroeste 0 922 0.1 31
2019-04-01 19:00:00 15 6 Noroeste 19 Norte 0 921.7 -0.5 30
2019-04-01 18:00:00 15.6 7 Norte 25 Noroeste 0 921.7 -0.9 31
2019-04-01 17:00:00 17 5 Sudoeste 21 Noroeste 0 921.9 -1.2 28
2019-04-01 16:00:00 18 8 Oeste 20 Oeste 0 922.2 -1.4 28
2019-04-01 15:00:00 14.5 8 Noroeste 17 Noroeste 0 922.6 -1.2 42
2019-04-01 14:00:00 14.2 4 Este 17 Noroeste 0 923.1 -0.4 45
2019-04-01 13:00:00 14 3 Sur 14 Este 0 923.6 0.5 49
2019-04-01 12:00:00 11.8 4 Nordeste 13 Norte 0 923.8 1.1 55
2019-04-01 11:00:00 10.7 5 Nordeste 13 Nordeste 0 923.5 0.8 61
2019-04-01 10:00:00 8.1 2 Sudeste 16 Este 0 923.1 0.8 71
2019-04-01 09:00:00 7.2 6 Este 12 Este 0 922.7 0.5 76
2019-04-01 08:00:00 5 0 Calma 4 Norte 0 922.7 0.4 80
2019-04-01 07:00:00 5.1 0 Calma 14 Este 0 922.3 -0.3 78
2019-04-01 06:00:00 5.7 8 Este 15 Este 0 922.2 -0.7 77
2019-04-01 05:00:00 6.1 7 Este 21 Este 0 922.3 -0.9 74
2019-04-01 04:00:00 6.1 8 Este 23 Este 0 922.6 -0.7 74
2019-04-01 03:00:00 6.2 15 Este 35 Sudeste 0 922.9 -0.3 73
2019-04-01 02:00:00 6.6 12 Este 32 Sudeste 0 923.2 0.1 72
2019-04-01 01:00:00 7.2 17 Este 37 Sudeste 0 923.3 0.5 73
2019-04-01 00:00:00 7.5 15 Este 35 Sudeste 0 923.2 1 71
2019-03-31 23:00:00 7.9 20 Este 41 Sudeste 0 923.1 1.1 72
2019-03-31 22:00:00 8.3 19 Este 40 Sudeste 0 922.8 1.2 71
2019-03-31 21:00:00 8.5 22 Sudeste 44 Este 0 922.2 0.8 69
2019-03-31 20:00:00 9.5 24 Este 51 Sudeste 0 922 0.7 61
2019-03-31 19:00:00 11.4 22 Sudeste 48 Sudeste 0 921.6 0.1 56
2019-03-31 18:00:00 13.2 22 Sudeste 45 Sudeste 0 921.4 -0.6 39
2019-03-31 17:00:00 15.2 20 Sudeste 44 Este 0 921.3 -1.3 34
2019-03-31 16:00:00 16.2 19 Este 44 Este 0 921.5 -1.7 30
2019-03-31 15:00:00 16.3 23 Este 41 Este 0 922 -1.6 29
2019-03-31 14:00:00 15.9 19 Este 42 Sudeste 0 922.6 -1.1 30
2019-03-31 13:00:00 14.5 19 Este 40 Este 0 923.2 -0.5 29
2019-03-31 12:00:00 13.3 19 Este 45 Este 0 923.6 -0.3 39
2019-03-31 11:00:00 10.4 22 Este 46 Este 0 923.7 0 47
2019-03-31 10:00:00 7.8 15 Este 30 Este 0 923.7 -0.1 51
2019-03-31 09:00:00 5.5 14 Este 28 Este 0 923.9 -0.1 52
2019-03-31 08:00:00 5 12 Este 26 Sudeste 0 923.7 -0.9 51
2019-03-31 07:00:00 4.3 9 Sudeste 21 Este 0 923.8 -1.3 52
2019-03-31 06:00:00 5.5 6 Este 21 Este 0 924 -1.5 48
2019-03-31 05:00:00 6.9 13 Este 24 Este 0 924.6 -1.3 42
2019-03-31 03:00:00 7.7 9 Este 22 Este 0 925.5 -1 37
2019-03-31 01:00:00 8.3 9 Este 23 Este 0 925.9 -0.2 35
2019-03-31 00:00:00 9.2 9 Este 24 Sudeste 0 926.1 0.5 34
2019-03-30 23:00:00 10.2 8 Este 24 Sudeste 0 926.5 1.5 33
2019-03-30 22:00:00 9.6 4 Sudeste 13 Este 0 926.1 1.4 34
2019-03-30 21:00:00 9.2 0 Calma 6 Este 0 925.6 0.9 33
2019-03-30 20:00:00 14 5 Este 17 Este 0 925 0.2 28
2019-03-30 19:00:00 16.1 7 Este 19 Nordeste 0 924.7 -0.7 20
2019-03-30 18:00:00 16.5 7 Nordeste 23 Nordeste 0 924.7 -1.6 20
2019-03-30 17:00:00 17 8 Nordeste 23 Sudeste 0 924.8 -2.2 20
2019-03-30 16:00:00 17.6 9 Este 24 Este 0 925.4 -2.4 18
2019-03-30 15:00:00 17.7 7 Este 32 Este 0 926.3 -2.2 17
2019-03-30 14:00:00 17.5 8 Sudeste 26 Sudeste 0 927 -2.2 21
2019-03-30 13:00:00 16.3 8 Sudeste 24 Sudeste 0 927.8 -1.7 24
2019-03-30 12:00:00 14.1 9 Este 25 Este 0 928.5 -1.1 31
2019-03-30 11:00:00 13.1 6 Este 22 Sudeste 0 929.2 -0.6 35
2019-03-30 10:00:00 10 13 Este 28 Sudeste 0 929.5 -0.2 42
2019-03-30 09:00:00 7 11 Este 23 Sudeste 0 929.6 0.1 50
2019-03-30 08:00:00 3.7 8 Este 14 Sudeste 0 929.8 0.4 62
2019-03-30 07:00:00 0.8 4 Este 12 Este 0 929.7 -0.1 70
2019-03-30 06:00:00 1 4 Este 13 Sudeste 0 929.5 -0.4 68
2019-03-30 05:00:00 1.6 8 Este 13 Este 0 929.4 -0.8 59
2019-03-30 04:00:00 1.7 6 Este 10 Este 0 929.8 -0.5 59
2019-03-30 03:00:00 2.7 3 Este 9 Este 0 929.9 -0.3 55
2019-03-30 02:00:00 3.9 5 Este 12 Este 0 930.2 0.1 50
2019-03-30 01:00:00 3.6 7 Sudeste 13 Este 0 930.3 0.6 49
2019-03-30 00:00:00 4 3 Este 8 Este 0 930.2 0.7 46
2019-03-29 23:00:00 4.6 3 Este 6 Este 0 930.1 1.1 46
2019-03-29 22:00:00 6.6 3 Noroeste 7 Este 0 929.7 1 44
2019-03-29 21:00:00 8.6 0 Calma 10 Sur 0 929.5 1.2 35
2019-03-29 20:00:00 12.6 5 Sur 18 Sur 0 929 0.6 24
2019-03-29 19:00:00 15 9 Sur 21 Sudeste 0 928.7 -0.1 22
2019-03-29 18:00:00 17.4 8 Sudeste 23 Sudeste 0 928.3 -1.3 19
2019-03-29 17:00:00 17.9 5 Sudeste 19 Sudeste 0 928.4 -1.9 19
2019-03-29 16:00:00 18.1 8 Este 19 Este 0 928.8 -2.2 16
2019-03-29 15:00:00 17.9 8 Sudeste 28 Este 0 929.6 -2.1 19
2019-03-29 14:00:00 17.5 11 Este 25 Este 0 930.3 -2 19
2019-03-29 13:00:00 16.7 9 Nordeste 23 Nordeste 0 931 -1.6 19
2019-03-29 12:00:00 15.1 8 Este 19 Este 0 931.7 -1.1 23
2019-03-29 11:00:00 13.2 10 Este 26 Este 0 932.3 -0.7 29
2019-03-29 10:00:00 10.3 12 Este 24 Este 0 932.6 0 34
2019-03-29 09:00:00 7.3 11 Este 26 Este 0 932.8 0.4 44
2019-03-29 08:00:00 3.7 9 Este 16 Sudeste 0 933 0.9 59
2019-03-29 07:00:00 2 6 Este 10 Este 0 932.6 0.4 64
2019-03-29 06:00:00 2.7 6 Este 12 Este 0 932.4 -0.1 64
2019-03-29 05:00:00 3.7 4 Este 15 Este 0 932.1 -0.4 62
2019-03-29 04:00:00 4.2 7 Este 18 Este 0 932.2 -0.4 58
2019-03-29 03:00:00 5.1 9 Este 19 Este 0 932.5 -0.2 56
2019-03-29 02:00:00 6.9 10 Este 22 Este 0 932.5 -0.4 49
2019-03-29 01:00:00 7.3 9 Este 18 Este 0 932.6 -0.1 49
2019-03-29 00:00:00 7.9 8 Este 15 Este 0 932.7 0.4 47
2019-03-28 23:00:00 6.8 5 Este 9 Este 0 932.9 1.4 44
2019-03-28 22:00:00 6.9 3 Este 8 Sur 0 932.7 1.4 49
2019-03-28 21:00:00 10.3 3 Sudoeste 10 Norte 0 932.3 1.1 42
2019-03-28 20:00:00 13.6 6 Norte 20 Noroeste 0 931.5 0 34
2019-03-28 19:00:00 16.4 6 Noroeste 17 Norte 0 931.3 -0.8 24
2019-03-28 18:00:00 17.8 4 Este 25 Sudeste 0 931.2 -1.7 16
2019-03-28 17:00:00 18.1 3 Sudeste 23 Nordeste 0 931.5 -2.1 15
2019-03-28 16:00:00 18.6 3 Sur 19 Este 0 932.1 -2.2 14
2019-03-28 15:00:00 18.3 4 Sudeste 18 Este 0 932.9 -2.1 15
2019-03-28 14:00:00 16.6 6 Este 18 Norte 0 933.6 -1.7 19
2019-03-28 13:00:00 14.9 5 Nordeste 19 Nordeste 0 934.3 -1.3 24
2019-03-28 12:00:00 13.2 6 Nordeste 24 Este 0 935 -0.7 29
2019-03-28 11:00:00 11.6 14 Este 28 Este 0 935.3 -0.4 29
2019-03-28 10:00:00 8.9 17 Este 30 Sudeste 0 935.6 0.2 37
2019-03-28 09:00:00 4.4 6 Este 10 Este 0 935.7 0.5 47
2019-03-28 08:00:00 -0.8 3 Sudoeste 5 Sudoeste 0 935.7 0.8 61
2019-03-28 07:00:00 -4.3 0 Calma 6 Este 0 935.4 0.7 71
2019-03-28 06:00:00 -3 0 Calma 10 Sudeste 0 935.2 0.3 71
2019-03-28 05:00:00 -2.9 4 Sudeste 8 Sudeste 0 934.9 0 66
2019-03-28 04:00:00 -2.7 3 Este 6 Sudeste 0 934.7 0.1 66
2019-03-28 03:00:00 -2.5 2 Sur 5 Norte 0 934.9 0.6 62
2019-03-28 02:00:00 -1.9 0 Calma 5 Sudoeste 0 934.9 0.9 59
2019-03-28 01:00:00 -0.5 2 Este 5 Este 0 934.6 0.8 54
2019-03-28 00:00:00 0.9 0 Calma 9 Sur 0 934.3 1.2 48
2019-03-27 23:00:00 3 3 Sudoeste 7 Sudoeste 0 934 1.9 41
2019-03-27 22:00:00 7 3 Sudoeste 13 Norte 0 933.8 2.7 31
2019-03-27 21:00:00 10.9 8 Nordeste 18 Norte 0 933.1 2.8 24
2019-03-27 20:00:00 13 9 Nordeste 30 Nordeste 0 932.1 2.1 20
2019-03-27 19:00:00 15.7 15 Nordeste 40 Norte 0 931.1 0.5 13
2019-03-27 18:00:00 17.2 18 Norte 44 Nordeste 0 930.3 -0.8 14
2019-03-27 17:00:00 18.8 5 Noroeste 14 Noroeste 0 930 -1.8 11
2019-03-27 16:00:00 19 3 Sur 19 Nordeste 0 930.6 -1.8 9
2019-03-27 15:00:00 18.9 6 Noroeste 16 Este 0 931.1 -1.7 10
2019-03-27 14:00:00 18.6 7 Sudeste 21 Este 0 931.8 -1.2 10
2019-03-27 13:00:00 16.1 6 Nordeste 21 Este 0 932.4 -0.6 13
2019-03-27 12:00:00 14 9 Este 19 Este 0 932.8 -0.2 19
2019-03-27 11:00:00 11.8 7 Este 21 Este 0 933 0.3 24
2019-03-27 10:00:00 9.3 9 Este 20 Este 0 933 0.8 28
2019-03-27 09:00:00 4.6 6 Este 13 Este 0 933 1 38
2019-03-27 08:00:00 -1.2 3 Sudeste 8 Sudeste 0 932.7 0.9 54
2019-03-27 07:00:00 -5.2 3 Este 6 Este 0 932.2 0.8 64
2019-03-27 06:00:00 -4.9 3 Oeste 6 Este 0 932 0.4 65
2019-03-27 05:00:00 -4.3 3 Este 9 Sudeste 0 931.8 0.3 59
2019-03-27 04:00:00 -3.6 3 Este 8 Este 0 931.4 0.1 64
2019-03-27 03:00:00 -3.3 2 Este 5 Sudeste 0 931.6 0.4 56
2019-03-27 02:00:00 -2.7 3 Oeste 8 Este 0 931.5 0.5 60
2019-03-27 01:00:00 -1.5 5 Este 8 Sudeste 0 931.3 0.6 47
2019-03-27 00:00:00 -1 2 Este 4 Sur 0 931.2 1.2 46
2019-03-26 23:00:00 1.3 3 Sudoeste 6 Sudoeste 0 931 2.1 39
2019-03-26 22:00:00 6.3 2 Sudeste 12 Nordeste 0 930.7 2.4 28
2019-03-26 21:00:00 9.2 4 Nordeste 18 Nordeste 0 930 2.5 25
2019-03-26 20:00:00 12.3 9 Nordeste 29 Nordeste 0 928.9 1.2 19
2019-03-26 19:00:00 16.1 13 Nordeste 27 Este 0 928.3 0.4 13
2019-03-26 18:00:00 17.6 13 Este 41 Sudeste 0 927.5 -0.9 9
2019-03-26 17:00:00 18.1 13 Este 34 Sudeste 0 927.7 -1.3 10
2019-03-26 16:00:00 18.4 19 Sudeste 44 Sudeste 0 927.9 -1.5 10
2019-03-26 15:00:00 18.3 16 Este 46 Sudeste 0 928.4 -1.6 11
2019-03-26 14:00:00 17.3 18 Sudeste 39 Sudeste 0 929 -1.5 14
2019-03-26 13:00:00 15.2 12 Este 31 Este 0 929.4 -1.1 22
2019-03-26 12:00:00 12.1 15 Este 31 Este 0 930 -0.7 26
2019-03-26 11:00:00 10.1 16 Sudeste 33 Este 0 930.5 0.1 30
2019-03-26 10:00:00 7.2 10 Este 20 Este 0 930.5 0.4 43
2019-03-26 09:00:00 3.1 5 Este 10 Este 0 930.7 0.7 61
2019-03-26 08:00:00 -0.7 5 Sudeste 10 Sudeste 0 930.4 0.4 69
2019-03-26 07:00:00 -4 0 Calma 6 Sudeste 0 930.1 0 77
2019-03-26 06:00:00 -3.1 3 Este 8 Este 0 930 -0.5 76
2019-03-26 05:00:00 -3.1 3 Este 6 Este 0 930 -0.8 79
2019-03-26 04:00:00 -3 2 Este 5 Noroeste 0 930.1 -0.8 77
2019-03-26 03:00:00 -2.4 2 Sur 6 Norte 0 930.5 -0.4 73
2019-03-26 02:00:00 -1.8 2 Sudoeste 6 Sudoeste 0 930.8 0.2 73
2019-03-26 01:00:00 -0.2 0 Calma 5 Sudoeste 0 930.9 0.7 68
2019-03-26 00:00:00 1.7 2 Noroeste 12 Norte 0 930.9 0.9 59
2019-03-25 23:00:00 4.2 6 Norte 14 Norte 0 930.6 0.9 56
2019-03-25 22:00:00 4.7 3 Noroeste 12 Norte 0 930.2 1.1 56
2019-03-25 21:00:00 7 6 Norte 14 Norte 0 930 1.4 51
2019-03-25 20:00:00 9.3 6 Norte 25 Norte 0 929.7 1 42
2019-03-25 19:00:00 11.8 12 Norte 34 Norte 0 929.1 0 35
2019-03-25 18:00:00 14.3 18 Norte 39 Noroeste 0 928.6 -1.2 29
2019-03-25 17:00:00 15.3 19 Norte 37 Norte 0 928.7 -1.9 26
2019-03-25 16:00:00 16.1 17 Norte 35 Noroeste 0 929.1 -2.3 26
2019-03-25 15:00:00 16.1 16 Norte 32 Noroeste 0 929.8 -2.2 28
2019-03-25 14:00:00 15.8 16 Noroeste 31 Noroeste 0 930.6 -2 30
2019-03-25 13:00:00 15 10 Noroeste 22 Noroeste 0 931.4 -1.4 31
2019-03-25 12:00:00 14.1 5 Nordeste 13 Oeste 0 932 -0.6 40
2019-03-25 11:00:00 13 5 Sudeste 11 Sudeste 0 932.6 0.2 35
2019-03-25 10:00:00 9.8 3 Nordeste 8 Sudeste 0 932.8 0.8 48
2019-03-25 09:00:00 5.9 4 Sudoeste 6 Sudoeste 0 932.6 0.6 58
2019-03-25 08:00:00 0.1 2 Sudoeste 5 Sudoeste 0 932.4 0.8 72
2019-03-25 07:00:00 -1.9 0 Calma 5 Norte 0 932 0.1 81
2019-03-25 06:00:00 -1.5 3 Sur 5 Sudoeste 0 932 -0.1 76
2019-03-25 05:00:00 -0.5 3 Sudoeste 5 Sudoeste 0 931.6 -0.8 76
2019-03-25 04:00:00 0.4 2 Este 6 Este 0 931.9 -0.6 73
2019-03-25 03:00:00 1 3 Sur 7 Sudoeste 0 932.1 -0.5 70
2019-03-25 02:00:00 2 4 Sudoeste 8 Sudoeste 0 932.4 -0.2 65
2019-03-25 01:00:00 3.4 0 Calma 5 Sudoeste 0 932.5 0.4 60
2019-03-25 00:00:00 5.6 3 Sudoeste 5 Sudoeste 0 932.6 1.3 55
2019-03-24 23:00:00 9.1 4 Norte 12 Norte 0 932.6 2.1 46
2019-03-24 22:00:00 11.9 2 Nordeste 19 Nordeste 0 932.1 1.8 35
2019-03-24 21:00:00 14 9 Nordeste 19 Nordeste 0 931.3 1.1 31
2019-03-24 20:00:00 15.9 5 Norte 17 Norte 0 930.5 0.1 27
2019-03-24 19:00:00 18.5 0 Calma 12 Sudeste 0 930.3 -0.6 17
2019-03-24 18:00:00 19.2 2 Noroeste 22 Este 0 930.2 -1.3 13
2019-03-24 17:00:00 19.5 9 Sudeste 32 Sudeste 0 930.4 -1.6 11
2019-03-24 16:00:00 19.8 8 Sudeste 26 Sudeste 0 930.9 -2 11
2019-03-24 15:00:00 19.9 14 Este 37 Sudeste 0 931.5 -1.9 11
2019-03-24 14:00:00 19.4 15 Este 34 Sudeste 0 932 -1.9 10
2019-03-24 13:00:00 18.5 14 Este 36 Este 0 932.9 -1.1 12
2019-03-24 12:00:00 17.2 14 Este 30 Este 0 933.4 -0.6 19
2019-03-24 11:00:00 14.6 9 Este 16 Este 0 933.9 0.1 33
2019-03-24 10:00:00 10 5 Este 12 Sudeste 0 934 0.7 46
2019-03-24 09:00:00 7 6 Este 10 Sudeste 0 934 0.8 53
2019-03-24 08:00:00 2.5 4 Este 10 Este 0 933.8 0.6 65
2019-03-24 07:00:00 0 7 Este 11 Sudeste 0 933.3 0.4 74
2019-03-24 06:00:00 -0.5 3 Este 5 Sudeste 0 933.2 0.1 71
2019-03-24 05:00:00 0.4 0 Calma 5 Sudoeste 0 933.2 0.1 68
2019-03-24 04:00:00 1.9 2 Noroeste 8 Este 0 932.9 -0.3 67
2019-03-24 03:00:00 2.2 2 Sudoeste 7 Sudoeste 0 933.1 0 61
2019-03-24 02:00:00 4.2 4 Noroeste 9 Sudoeste 0 933.1 0 59
2019-03-24 01:00:00 5.8 4 Sudeste 12 Este 0 933.2 0.3 49
2019-03-24 00:00:00 7 6 Sudeste 12 Este 0 933.1 0.8 46
2019-03-23 23:00:00 6.5 3 Este 7 Este 0 933.1 1.4 50
2019-03-23 22:00:00 7.6 3 Sudeste 9 Este 0 932.9 1.4 42
2019-03-23 21:00:00 10.3 4 Este 7 Este 0 932.3 1.1 34
2019-03-23 20:00:00 14.4 4 Este 18 Sudeste 0 931.7 0.4 26
2019-03-23 19:00:00 17.7 8 Sudeste 23 Sudeste 0 931.5 -0.3 20
2019-03-23 18:00:00 18.5 12 Sudeste 31 Sudeste 0 931.2 -1.2 17
2019-03-23 17:00:00 18.8 12 Sudeste 29 Sudeste 0 931.3 -2 18
2019-03-23 16:00:00 19.1 14 Sudeste 30 Este 0 931.8 -2.3 16
2019-03-23 15:00:00 19.2 13 Este 33 Este 0 932.4 -2.4 18
2019-03-23 14:00:00 18.2 15 Este 30 Sudeste 0 933.3 -2.1 19
2019-03-23 13:00:00 17.6 12 Sudeste 26 Sudeste 0 934.1 -1.8 23
2019-03-23 12:00:00 15.6 8 Este 21 Sudeste 0 934.8 -1 32
2019-03-23 11:00:00 13.7 9 Este 19 Este 0 935.4 -0.2 35
2019-03-23 10:00:00 9.5 5 Este 13 Este 0 935.9 0.6 46
2019-03-23 09:00:00 6.1 5 Este 10 Este 0 935.8 0.8 57
2019-03-23 08:00:00 1.4 5 Sudeste 10 Sudeste 0 935.6 0.5 68
2019-03-23 07:00:00 -1.1 0 Calma 9 Sudeste 0 935.3 0 73
2019-03-23 06:00:00 0 5 Este 10 Sudeste 0 935 -0.4 69
2019-03-23 05:00:00 1.4 6 Este 10 Este 0 935.1 -0.2 66
2019-03-23 04:00:00 0.3 2 Sudeste 9 Este 0 935.3 0.2 73
2019-03-23 03:00:00 0.4 3 Sudoeste 8 Este 0 935.4 0.1 68
2019-03-23 02:00:00 2 5 Este 9 Este 0 935.3 0.1 66
2019-03-23 01:00:00 3.3 7 Sudeste 10 Sudeste 0 935.1 0.3 58
2019-03-23 00:00:00 2.5 3 Sudeste 6 Sudeste 0 935.3 1.2 60
2019-03-22 23:00:00 3.5 0 Calma 5 Este 0 935.2 1.7 59
2019-03-22 22:00:00 5 0 Calma 5 Sudeste 0 934.8 1.6 48
2019-03-22 21:00:00 7.5 2 Este 4 Nordeste 0 934.1 1.2 42
2019-03-22 20:00:00 12.5 0 Calma 21 Sudeste 0 933.5 0.5 28
2019-03-22 19:00:00 15.5 10 Sudeste 23 Este 0 933.2 -0.3 21
2019-03-22 18:00:00 16.3 9 Sudeste 27 Este 0 932.9 -1.2 18
2019-03-22 17:00:00 16.6 8 Sudeste 25 Este 0 933 -1.8 16
2019-03-22 16:00:00 16.7 3 Sudeste 22 Este 0 933.5 -2 16
2019-03-22 15:00:00 16.2 7 Nordeste 19 Nordeste 0 934.1 -1.9 18
2019-03-22 14:00:00 15.7 5 Nordeste 18 Este 0 934.8 -1.4 20
2019-03-22 13:00:00 14.3 5 Sudeste 19 Este 0 935.5 -0.8 22
2019-03-22 12:00:00 12.4 7 Este 17 Nordeste 0 936 -0.2 26
2019-03-22 11:00:00 10.8 8 Este 19 Sudeste 0 936.2 0.2 33
2019-03-22 10:00:00 7.7 6 Este 16 Sudeste 0 936.3 0.7 38
2019-03-22 09:00:00 4 7 Este 14 Sudeste 0 936.2 1 48
2019-03-22 08:00:00 -0.1 7 Sudeste 11 Sudeste 0 936 1.2 59
2019-03-22 07:00:00 -1.8 7 Sudeste 11 Sudeste 0 935.6 1 63
2019-03-22 06:00:00 -1.1 4 Sudeste 13 Este 0 935.2 0.4 59
2019-03-22 05:00:00 0.4 6 Este 12 Este 0 934.8 0.1 59
2019-03-22 04:00:00 0.3 4 Este 14 Sudeste 0 934.6 -0.1 56
2019-03-22 03:00:00 1.9 7 Sudeste 16 Este 0 934.8 0.1 49
2019-03-22 02:00:00 3.4 10 Este 20 Este 0 934.7 0.1 47
2019-03-22 01:00:00 3.9 7 Este 15 Este 0 934.7 0.5 42
2019-03-22 00:00:00 2.5 6 Este 12 Sudeste 0 934.7 1.1 48
2019-03-21 23:00:00 0.9 2 Este 7 Sudoeste 0 934.6 1.7 57
2019-03-21 22:00:00 2.4 0 Calma 7 Sudoeste 0 934.2 1.6 55
2019-03-21 21:00:00 5.3 4 Este 9 Sudeste 0 933.6 1.3 46
2019-03-21 20:00:00 8.5 0 Calma 5 Nordeste 0 932.9 0.3 30
2019-03-21 19:00:00 12.8 5 Nordeste 17 Este 0 932.6 -0.5 20
2019-03-21 18:00:00 13.2 3 Este 14 Nordeste 0 932.3 -1.3 18
2019-03-21 17:00:00 13.4 6 Nordeste 17 Este 0 932.6 -1.7 18
2019-03-21 16:00:00 14.1 4 Sudeste 18 Sudeste 0 933.1 -1.9 17
2019-03-21 15:00:00 13.6 7 Este 17 Sudeste 0 933.6 -1.9 20
2019-03-21 14:00:00 13.5 4 Sudeste 15 Nordeste 0 934.3 -1.7 22
2019-03-21 13:00:00 11.9 5 Sudeste 18 Este 0 935 -1.4 25
2019-03-21 12:00:00 9.8 9 Este 24 Este 0 935.5 -1 32
2019-03-21 11:00:00 8.7 11 Este 22 Sudeste 0 936 -0.3 34
2019-03-21 10:00:00 5.3 6 Sudeste 15 Este 0 936.4 0.4 49
2019-03-21 09:00:00 2.1 7 Este 12 Este 0 936.5 0.6 58
2019-03-21 08:00:00 -3.6 0 Calma 5 Sudoeste 0 936.3 0.8 76
2019-03-21 07:00:00 -5.6 3 Sudoeste 7 Sudeste 0 936 0.7 78
2019-03-21 06:00:00 -5 0 Calma 7 Este 0 935.9 0.3 77
2019-03-21 05:00:00 -4.8 4 Sudoeste 6 Sudoeste 0 935.5 -0.4 76
2019-03-21 04:00:00 -3.7 2 Sur 6 Sudoeste 0 935.3 -0.6 74
2019-03-21 03:00:00 -2.5 3 Sudeste 8 Este 0 935.6 -0.5 71
2019-03-21 02:00:00 -1.9 3 Este 8 Sudeste 0 935.9 -0.2 75
2019-03-21 01:00:00 -0.9 5 Este 9 Este 0 935.9 -0.2 67
2019-03-21 00:00:00 -0.7 2 Este 8 Este 0 936.1 0.8 65